Time;durP1;ratioP1;P1;durP2;ratioP2;P2;SDS_P1;SDS_P2;PMS_P1;PMS_P2;Temp;Humidity;BMP_temperature;BMP_pressure;BME280_temperature;BME280_humidity;BME280_pressure;Samples;Min_cycle;Max_cycle;Signal;HPM_P1;HPM_P2
2022/03/29 00:01:59;;;;;;;12.75;9.40;;;14.50;66.30;;;;;;4998024;28;20018;-77
2022/03/29 00:04:25;;;;;;;13.73;10.60;;;14.50;66.40;;;;;;4984508;28;20488;-79
2022/03/29 00:06:52;;;;;;;12.35;10.48;;;14.50;66.40;;;;;;4998156;28;20078;-78
2022/03/29 00:09:18;;;;;;;13.25;10.35;;;14.40;66.40;;;;;;4991158;28;20025;-78
2022/03/29 00:11:45;;;;;;;12.00;9.98;;;14.40;66.40;;;;;;4997947;28;20195;-77
2022/03/29 00:14:12;;;;;;;12.07;10.10;;;14.40;66.40;;;;;;4998560;28;20028;-77
2022/03/29 00:16:38;;;;;;;12.02;9.65;;;14.30;66.30;;;;;;4984133;28;20081;-77
2022/03/29 00:19:04;;;;;;;11.65;9.48;;;14.30;66.40;;;;;;4998558;28;20120;-77
2022/03/29 00:21:30;;;;;;;11.38;9.32;;;14.30;66.40;;;;;;5008456;28;20026;-78
2022/03/29 00:23:56;;;;;;;11.10;9.18;;;14.20;66.40;;;;;;5008202;28;20108;-77
2022/03/29 00:26:22;;;;;;;13.18;9.95;;;14.20;66.50;;;;;;4992615;28;20125;-77
2022/03/29 00:28:48;;;;;;;11.90;9.63;;;14.20;66.60;;;;;;5028911;28;20509;-76
2022/03/29 00:31:16;;;;;;;11.73;9.93;;;14.10;66.50;;;;;;4992650;28;20040;-79
2022/03/29 00:33:42;;;;;;;12.18;9.80;;;14.10;66.60;;;;;;5007386;28;20022;-78
2022/03/29 00:36:08;;;;;;;12.75;10.02;;;14.10;66.60;;;;;;4996495;28;20041;-77
2022/03/29 00:38:34;;;;;;;11.40;8.95;;;14.00;66.70;;;;;;4995595;28;20037;-78
2022/03/29 00:41:01;;;;;;;11.65;9.63;;;14.00;66.60;;;;;;5009157;28;20379;-77
2022/03/29 00:43:27;;;;;;;12.80;9.93;;;14.00;66.60;;;;;;4994694;28;20538;-78
2022/03/29 00:45:52;;;;;;;11.80;9.90;;;13.90;66.70;;;;;;4994315;28;20117;-78
2022/03/29 00:48:18;;;;;;;12.23;9.70;;;13.90;66.70;;;;;;5016057;28;20032;-79
2022/03/29 00:50:45;;;;;;;12.13;9.50;;;13.90;66.80;;;;;;5003047;28;20619;-79
2022/03/29 00:53:11;;;;;;;11.15;9.02;;;13.80;66.80;;;;;;5005438;28;20073;-78
2022/03/29 00:55:38;;;;;;;11.55;9.48;;;13.80;66.80;;;;;;4984424;28;20140;-78
2022/03/29 00:58:06;;;;;;;10.88;8.88;;;13.80;66.80;;;;;;4994347;28;20129;-78
2022/03/29 01:00:34;;;;;;;11.45;10.02;;;13.70;66.70;;;;;;5025040;28;20040;-78
2022/03/29 01:03:03;;;;;;;11.70;9.25;;;13.70;66.80;;;;;;5009094;28;20521;-79
2022/03/29 01:05:29;;;;;;;11.20;9.45;;;13.70;66.80;;;;;;5010799;28;20030;-78
2022/03/29 01:07:56;;;;;;;11.90;9.60;;;13.70;66.80;;;;;;4997989;28;20037;-78
2022/03/29 01:10:22;;;;;;;11.82;9.52;;;13.60;66.80;;;;;;4993136;28;20032;-78
2022/03/29 01:12:48;;;;;;;11.40;9.63;;;13.60;66.70;;;;;;5007119;28;20095;-79
2022/03/29 01:15:14;;;;;;;12.32;9.75;;;13.60;67.40;;;;;;4999259;28;20458;-78
2022/03/29 01:17:43;;;;;;;11.98;9.48;;;13.60;66.80;;;;;;5023067;28;20088;-79
2022/03/29 01:20:13;;;;;;;12.20;9.75;;;13.50;66.70;;;;;;5010986;28;20137;-78
2022/03/29 01:22:46;;;;;;;11.40;9.07;;;13.50;67.30;;;;;;4987439;28;20458;-79
2022/03/29 01:25:16;;;;;;;11.75;9.30;;;13.50;66.70;;;;;;4985448;28;20025;-78
2022/03/29 01:27:44;;;;;;;11.90;8.93;;;13.40;66.60;;;;;;5007604;28;20025;-78
2022/03/29 01:30:10;;;;;;;12.10;9.85;;;13.40;66.60;;;;;;4997094;28;20651;-78
2022/03/29 01:32:43;;;;;;;11.68;9.18;;;13.40;66.60;;;;;;4995736;28;20131;-79
2022/03/29 01:35:10;;;;;;;11.88;9.40;;;13.40;66.70;;;;;;4999799;28;20084;-79
2022/03/29 01:37:36;;;;;;;10.75;9.13;;;13.40;66.70;;;;;;4979795;28;20029;-79
2022/03/29 01:40:12;;;;;;;11.95;9.65;;;13.30;66.70;;;;;;4996912;28;20091;-79
2022/03/29 01:42:39;;;;;;;10.38;8.32;;;13.30;66.70;;;;;;4993740;28;20036;-78
2022/03/29 01:45:05;;;;;;;11.15;9.07;;;13.30;66.60;;;;;;4973898;28;20539;-78
2022/03/29 01:47:31;;;;;;;11.77;9.32;;;13.20;66.60;;;;;;4993144;28;20045;-78
2022/03/29 01:49:57;;;;;;;11.50;8.90;;;13.30;66.70;;;;;;4978329;28;20168;-79
2022/03/29 01:52:22;;;;;;;12.32;9.38;;;13.20;66.60;;;;;;5001685;28;20042;-79
2022/03/29 01:54:49;;;;;;;12.30;9.40;;;13.20;66.60;;;;;;5007964;28;20042;-80
2022/03/29 01:57:15;;;;;;;11.40;9.35;;;13.20;66.70;;;;;;4993353;28;20057;-78
2022/03/29 02:02:27;;;;;;;12.02;9.32;;;13.10;66.60;;;;;;5005764;28;20167;-78
2022/03/29 02:04:53;;;;;;;11.05;8.90;;;13.10;66.60;;;;;;4995111;28;20505;-79
2022/03/29 02:07:19;;;;;;;12.48;9.73;;;13.10;66.70;;;;;;4986602;28;20447;-79
2022/03/29 02:09:45;;;;;;;11.90;9.75;;;13.10;66.80;;;;;;5008626;28;20160;-78
2022/03/29 02:12:12;;;;;;;12.52;9.68;;;13.00;66.70;;;;;;5000466;28;20036;-79
2022/03/29 02:14:38;;;;;;;11.93;9.25;;;13.00;66.70;;;;;;4988486;28;20668;-80
2022/03/29 02:17:05;;;;;;;11.77;9.52;;;13.00;66.80;;;;;;5026373;28;20498;-79
2022/03/29 02:19:31;;;;;;;12.70;9.90;;;13.00;66.80;;;;;;4995507;28;20371;-78
2022/03/29 02:21:57;;;;;;;10.70;9.00;;;13.00;66.80;;;;;;5008782;28;20105;-78
2022/03/29 02:24:24;;;;;;;13.13;9.70;;;13.00;66.80;;;;;;5007634;28;20062;-77
2022/03/29 02:26:49;;;;;;;11.52;9.18;;;12.90;66.70;;;;;;5009616;28;20034;-77
2022/03/29 02:29:15;;;;;;;11.90;9.68;;;12.90;66.80;;;;;;4996184;28;20079;-77
2022/03/29 02:31:41;;;;;;;11.95;9.43;;;12.90;66.80;;;;;;4979989;28;20033;-77
2022/03/29 02:34:07;;;;;;;11.55;9.02;;;12.90;66.80;;;;;;5024744;28;20474;-77
2022/03/29 02:36:32;;;;;;;11.13;8.93;;;12.90;66.80;;;;;;5025370;28;20363;-77
2022/03/29 02:38:59;;;;;;;12.40;9.18;;;12.90;66.90;;;;;;4980666;28;20037;-77
2022/03/29 02:41:24;;;;;;;10.98;9.18;;;12.80;66.80;;;;;;4979431;28;20037;-77
2022/03/29 02:43:50;;;;;;;11.88;9.38;;;12.80;66.90;;;;;;4984537;28;20371;-77
2022/03/29 02:46:16;;;;;;;11.80;9.30;;;12.80;66.90;;;;;;4997237;28;20112;-78
2022/03/29 02:48:42;;;;;;;11.68;9.18;;;12.80;66.90;;;;;;5011093;28;20033;-77
2022/03/29 02:51:07;;;;;;;12.82;9.27;;;12.80;66.90;;;;;;4997938;28;20025;-77
2022/03/29 02:53:33;;;;;;;11.68;9.63;;;12.80;66.90;;;;;;4995028;28;20038;-78
2022/03/29 02:55:59;;;;;;;12.35;9.25;;;12.70;66.90;;;;;;4988315;28;20046;-77
2022/03/29 02:58:25;;;;;;;12.45;9.13;;;12.80;67.00;;;;;;4973831;28;20452;-78
2022/03/29 03:00:51;;;;;;;11.48;9.30;;;12.70;66.90;;;;;;4996502;28;20060;-77
2022/03/29 03:03:17;;;;;;;11.95;9.00;;;12.70;67.00;;;;;;5012330;28;20095;-77
2022/03/29 03:05:43;;;;;;;11.70;9.18;;;12.70;67.00;;;;;;5008147;28;20034;-79
2022/03/29 03:08:09;;;;;;;10.85;8.15;;;12.70;67.00;;;;;;4985049;28;20038;-77
2022/03/29 03:10:35;;;;;;;10.90;8.50;;;12.70;67.00;;;;;;5015368;28;20053;-79
2022/03/29 03:13:00;;;;;;;11.95;9.57;;;12.70;67.00;;;;;;4990357;28;20083;-78
2022/03/29 03:15:26;;;;;;;11.70;9.35;;;12.60;67.00;;;;;;4996154;28;20029;-78
2022/03/29 03:17:53;;;;;;;11.48;9.35;;;12.60;67.00;;;;;;5010952;28;20488;-79
2022/03/29 03:20:21;;;;;;;11.35;9.05;;;12.60;67.10;;;;;;4999284;28;20137;-78
2022/03/29 03:22:48;;;;;;;12.23;9.70;;;12.60;67.10;;;;;;4998181;28;20040;-77
2022/03/29 03:25:13;;;;;;;12.07;8.88;;;12.60;67.10;;;;;;5019251;28;20120;-77
2022/03/29 03:27:40;;;;;;;11.80;9.38;;;12.50;67.10;;;;;;4996725;28;20117;-78
2022/03/29 03:30:12;;;;;;;11.88;9.15;;;12.50;67.10;;;;;;5013272;28;20032;-77
2022/03/29 03:32:39;;;;;;;10.88;8.68;;;12.50;67.10;;;;;;5000033;28;20164;-77
2022/03/29 03:35:05;;;;;;;10.95;8.73;;;12.50;67.10;;;;;;5013223;28;20029;-77
2022/03/29 03:37:31;;;;;;;10.90;8.45;;;12.50;67.10;;;;;;5005922;28;20478;-77
2022/03/29 03:39:57;;;;;;;11.65;8.68;;;12.50;67.20;;;;;;5007494;28;20117;-78
2022/03/29 03:42:24;;;;;;;10.82;8.43;;;12.40;67.10;;;;;;5016089;28;20314;-77
2022/03/29 03:44:50;;;;;;;10.48;8.00;;;12.50;67.30;;;;;;4983512;28;20049;-78
2022/03/29 03:47:16;;;;;;;11.40;8.32;;;12.40;67.80;;;;;;5016118;28;20037;-78
2022/03/29 03:49:42;;;;;;;11.85;9.20;;;12.40;67.20;;;;;;4999810;28;20045;-79
2022/03/29 03:52:09;;;;;;;11.98;9.38;;;12.40;67.30;;;;;;5032110;28;20037;-80
2022/03/29 03:54:38;;;;;;;11.57;8.48;;;12.40;67.30;;;;;;5021669;28;20368;-79
2022/03/29 03:57:04;;;;;;;11.02;8.75;;;12.40;67.30;;;;;;4983385;28;20412;-79
2022/03/29 03:59:31;;;;;;;11.35;8.77;;;12.40;67.30;;;;;;4974928;28;20034;-79
2022/03/29 04:01:58;;;;;;;11.38;8.60;;;12.30;67.30;;;;;;4984381;28;20065;-79
2022/03/29 04:04:23;;;;;;;10.93;8.40;;;12.30;67.30;;;;;;4981865;28;20113;-78
2022/03/29 04:06:49;;;;;;;11.30;8.55;;;12.30;67.30;;;;;;4983344;28;20176;-79
2022/03/29 04:09:15;;;;;;;11.32;8.52;;;12.30;67.30;;;;;;4969239;28;20039;-80
2022/03/29 04:11:41;;;;;;;10.77;8.50;;;12.30;67.40;;;;;;4958498;28;20061;-79
2022/03/29 04:14:06;;;;;;;11.27;8.80;;;12.30;67.40;;;;;;4975768;28;20035;-79
2022/03/29 04:16:33;;;;;;;11.43;8.60;;;12.30;67.40;;;;;;4970656;28;20038;-78
2022/03/29 04:18:58;;;;;;;12.20;8.65;;;12.30;67.40;;;;;;4988026;28;20035;-77
2022/03/29 04:21:24;;;;;;;11.48;8.88;;;12.30;67.40;;;;;;4971363;28;20105;-77
2022/03/29 04:23:50;;;;;;;10.68;8.60;;;12.20;67.40;;;;;;4989594;28;20455;-78
2022/03/29 04:26:16;;;;;;;11.30;8.05;;;12.20;67.50;;;;;;4968653;28;20035;-78
2022/03/29 04:28:42;;;;;;;12.15;8.65;;;12.20;67.50;;;;;;4962199;28;20145;-78
2022/03/29 04:31:08;;;;;;;11.75;8.65;;;12.20;67.50;;;;;;4984297;28;20026;-81
2022/03/29 04:33:35;;;;;;;10.80;8.50;;;12.20;67.50;;;;;;4975540;28;20026;-79
2022/03/29 04:36:01;;;;;;;11.00;8.30;;;12.20;67.60;;;;;;4983693;28;20019;-77
2022/03/29 04:38:27;;;;;;;11.90;8.82;;;12.10;67.50;;;;;;4991441;28;20407;-79
2022/03/29 04:40:53;;;;;;;12.25;8.65;;;12.10;67.50;;;;;;4972370;28;20034;-80
2022/03/29 04:43:19;;;;;;;12.27;9.07;;;12.10;67.60;;;;;;4957256;28;20568;-79
2022/03/29 04:45:44;;;;;;;11.02;8.05;;;12.10;67.60;;;;;;4955284;28;20495;-78
2022/03/29 04:48:11;;;;;;;12.35;8.85;;;12.10;67.60;;;;;;4971619;28;20034;-79
2022/03/29 04:50:38;;;;;;;11.43;8.88;;;12.10;67.60;;;;;;4970589;28;20116;-79
2022/03/29 04:53:04;;;;;;;12.10;8.48;;;12.10;67.60;;;;;;4983659;28;20035;-76
2022/03/29 04:55:30;;;;;;;12.52;8.95;;;12.10;67.60;;;;;;4993781;28;20049;-76
2022/03/29 04:57:56;;;;;;;11.70;8.77;;;12.10;67.70;;;;;;5009136;28;20049;-77
2022/03/29 05:00:22;;;;;;;11.60;8.85;;;12.10;68.30;;;;;;5008556;28;20427;-76
2022/03/29 05:02:48;;;;;;;12.38;9.13;;;12.10;67.70;;;;;;4989802;28;20165;-78
2022/03/29 05:05:14;;;;;;;12.75;9.13;;;12.00;67.70;;;;;;4988893;28;20502;-78
2022/03/29 05:07:41;;;;;;;11.57;8.40;;;12.00;67.70;;;;;;5007926;28;20050;-77
2022/03/29 05:10:08;;;;;;;11.57;8.52;;;12.00;67.80;;;;;;5008979;28;20037;-77
2022/03/29 05:12:45;;;;;;;11.02;8.30;;;12.00;67.80;;;;;;5008187;28;20044;-77
2022/03/29 05:15:13;;;;;;;13.15;9.48;;;12.00;67.80;;;;;;5007402;28;20072;-78
2022/03/29 05:17:39;;;;;;;12.13;8.80;;;12.00;67.80;;;;;;5006533;28;20033;-78
2022/03/29 05:20:07;;;;;;;12.60;9.55;;;12.00;67.80;;;;;;4972831;28;20041;-83
2022/03/29 05:22:41;;;;;;;12.45;8.82;;;11.90;67.80;;;;;;4991000;28;20021;-77
2022/03/29 05:25:07;;;;;;;11.17;8.60;;;12.00;68.30;;;;;;5001832;28;20537;-77
2022/03/29 05:27:33;;;;;;;12.60;9.05;;;11.90;67.80;;;;;;4991667;28;20034;-77
2022/03/29 05:29:59;;;;;;;12.27;9.07;;;11.90;67.80;;;;;;4974848;28;20042;-78
2022/03/29 05:32:25;;;;;;;12.25;9.07;;;11.90;67.90;;;;;;5007398;28;20049;-76
2022/03/29 05:34:50;;;;;;;13.10;9.13;;;11.90;67.90;;;;;;4993290;28;20026;-79
2022/03/29 05:37:16;;;;;;;12.73;9.35;;;11.90;67.90;;;;;;4992511;28;20065;-78
2022/03/29 05:39:43;;;;;;;12.45;8.63;;;11.90;67.90;;;;;;5002312;28;20482;-76
2022/03/29 05:42:12;;;;;;;12.40;8.98;;;11.90;67.90;;;;;;4971550;28;20034;-78
2022/03/29 05:44:38;;;;;;;11.65;8.85;;;11.80;67.90;;;;;;4990477;28;20041;-79
2022/03/29 05:49:51;;;;;;;13.40;9.63;;;11.80;68.00;;;;;;5010229;28;20037;-78
2022/03/29 05:52:17;;;;;;;12.90;9.02;;;11.80;68.00;;;;;;4993265;28;20026;-78
2022/03/29 05:54:45;;;;;;;12.00;8.73;;;11.80;68.00;;;;;;4993737;28;20034;-77
2022/03/29 05:57:14;;;;;;;12.07;9.20;;;11.80;68.00;;;;;;4982481;28;20058;-79
2022/03/29 05:59:41;;;;;;;12.50;9.27;;;11.80;68.10;;;;;;4958253;28;20117;-79
2022/03/29 06:02:07;;;;;;;12.75;9.30;;;11.80;68.10;;;;;;4990289;28;20022;-77
2022/03/29 06:04:34;;;;;;;12.18;8.55;;;11.80;68.10;;;;;;4992490;28;20057;-78
2022/03/29 06:06:59;;;;;;;11.38;8.43;;;11.80;68.10;;;;;;4990048;28;20117;-79
2022/03/29 06:09:25;;;;;;;12.13;8.98;;;11.80;68.10;;;;;;4952157;28;20453;-78
2022/03/29 06:11:51;;;;;;;11.55;8.48;;;11.80;68.10;;;;;;4990439;28;20101;-80
2022/03/29 06:14:17;;;;;;;12.35;9.20;;;11.80;68.10;;;;;;4957516;28;20045;-77
2022/03/29 06:16:43;;;;;;;11.38;8.13;;;11.80;68.20;;;;;;4964234;28;20060;-78
2022/03/29 06:19:10;;;;;;;11.40;8.15;;;11.80;68.20;;;;;;4979447;28;20031;-77
2022/03/29 06:21:37;;;;;;;10.75;8.05;;;11.80;68.20;;;;;;4989538;28;20053;-77
2022/03/29 06:24:08;;;;;;;12.05;8.60;;;11.70;68.20;;;;;;4970850;28;20027;-78
2022/03/29 06:26:39;;;;;;;10.65;8.18;;;11.70;68.20;;;;;;4986282;28;20475;-76
2022/03/29 06:29:09;;;;;;;12.20;9.13;;;11.70;68.30;;;;;;4976224;28;20023;-78
2022/03/29 06:31:35;;;;;;;10.82;8.00;;;11.70;68.20;;;;;;4973039;28;20467;-78
2022/03/29 06:34:02;;;;;;;11.73;8.20;;;11.70;68.20;;;;;;4989912;28;20058;-78
2022/03/29 06:36:28;;;;;;;13.23;8.95;;;11.70;68.30;;;;;;4986519;28;20046;-77
2022/03/29 06:38:54;;;;;;;12.38;8.43;;;11.70;68.30;;;;;;4985756;28;20414;-77
2022/03/29 06:41:20;;;;;;;11.13;8.48;;;11.70;68.30;;;;;;4972646;28;20117;-78
2022/03/29 06:43:47;;;;;;;11.80;8.35;;;11.70;68.30;;;;;;4974493;28;20026;-78
2022/03/29 06:46:12;;;;;;;11.43;8.18;;;11.70;68.30;;;;;;4974072;28;20031;-78
2022/03/29 06:48:41;;;;;;;11.25;8.07;;;11.70;68.30;;;;;;4989151;28;20037;-78
2022/03/29 06:51:14;;;;;;;11.23;8.27;;;11.60;68.30;;;;;;4989081;28;20021;-78
2022/03/29 06:53:41;;;;;;;11.38;8.52;;;11.70;68.40;;;;;;4991004;28;20030;-78
2022/03/29 06:56:08;;;;;;;12.10;8.32;;;11.70;68.40;;;;;;5005429;28;20392;-79
2022/03/29 06:58:35;;;;;;;12.23;8.05;;;11.70;68.40;;;;;;4994960;28;20030;-78
2022/03/29 07:01:00;;;;;;;11.35;8.45;;;11.70;68.50;;;;;;4990869;28;20042;-78
2022/03/29 07:03:27;;;;;;;11.25;8.10;;;11.60;68.40;;;;;;4977084;28;20088;-78
2022/03/29 07:05:53;;;;;;;11.55;8.50;;;11.60;68.40;;;;;;4994849;28;20037;-78
2022/03/29 07:08:20;;;;;;;12.10;7.93;;;11.60;68.40;;;;;;4993343;28;20184;-77
2022/03/29 07:13:31;;;;;;;10.43;7.73;;;11.60;68.40;;;;;;4977077;28;20038;-77
2022/03/29 07:15:57;;;;;;;10.00;7.30;;;11.60;68.40;;;;;;4993421;28;20296;-77
2022/03/29 07:18:22;;;;;;;10.80;7.78;;;11.60;68.50;;;;;;4976346;28;20140;-78
2022/03/29 07:20:48;;;;;;;11.77;8.40;;;11.60;68.50;;;;;;4977134;28;20027;-78
2022/03/29 07:23:14;;;;;;;10.70;7.80;;;11.60;68.50;;;;;;4979683;28;20266;-78
2022/03/29 07:25:40;;;;;;;11.13;7.97;;;11.60;68.50;;;;;;4992989;28;20034;-78
2022/03/29 07:28:11;;;;;;;10.48;7.75;;;11.60;68.50;;;;;;4977100;28;20125;-78
2022/03/29 07:30:38;;;;;;;10.63;7.70;;;11.60;68.50;;;;;;4942993;28;20538;-78
2022/03/29 07:33:04;;;;;;;11.00;7.97;;;11.60;68.60;;;;;;4992465;28;20168;-78
2022/03/29 07:35:31;;;;;;;11.35;8.00;;;11.60;68.50;;;;;;4986680;28;20039;-78
2022/03/29 07:37:58;;;;;;;11.60;7.90;;;11.60;68.60;;;;;;4971279;28;20030;-78
2022/03/29 07:40:25;;;;;;;11.57;8.32;;;11.60;68.60;;;;;;4982643;28;20455;-78
2022/03/29 07:42:52;;;;;;;10.02;7.90;;;11.60;68.60;;;;;;4980133;28;20031;-78
2022/03/29 07:45:19;;;;;;;11.90;7.78;;;11.60;68.60;;;;;;4991644;28;20062;-78
2022/03/29 07:47:46;;;;;;;11.98;7.97;;;11.60;68.60;;;;;;4992600;28;20034;-78
2022/03/29 07:50:12;;;;;;;11.82;7.78;;;11.60;68.60;;;;;;4974701;28;20031;-78
2022/03/29 07:52:41;;;;;;;11.30;8.02;;;11.60;68.60;;;;;;4988838;28;20033;-77
2022/03/29 07:55:10;;;;;;;10.93;7.75;;;11.50;68.60;;;;;;4993257;28;20374;-78
2022/03/29 07:57:36;;;;;;;11.60;7.95;;;11.60;68.70;;;;;;4984474;28;20046;-78
2022/03/29 08:00:31;;;;;;;11.90;8.60;;;11.60;68.70;;;;;;4984693;28;20118;-77
2022/03/29 08:02:50;;;;;;;10.68;7.68;;;11.60;68.70;;;;;;4985703;28;20049;-78
2022/03/29 08:05:16;;;;;;;12.00;7.93;;;11.60;68.70;;;;;;4991294;28;20034;-78
2022/03/29 08:07:42;;;;;;;11.43;8.30;;;11.60;68.70;;;;;;4991077;28;20376;-78
2022/03/29 08:10:08;;;;;;;12.20;7.90;;;11.60;68.70;;;;;;4975994;28;20467;-78
2022/03/29 08:12:37;;;;;;;11.60;8.40;;;11.60;68.70;;;;;;4973396;28;20035;-79
2022/03/29 08:15:05;;;;;;;11.15;8.18;;;11.60;68.70;;;;;;4967629;28;20061;-79
2022/03/29 08:17:32;;;;;;;11.10;7.90;;;11.60;68.70;;;;;;4971998;28;20571;-78
2022/03/29 08:19:58;;;;;;;12.27;9.00;;;11.60;68.70;;;;;;4975676;28;20034;-78
2022/03/29 08:22:23;;;;;;;12.00;8.23;;;11.60;68.70;;;;;;4959696;28;20093;-78
2022/03/29 08:24:49;;;;;;;11.48;8.05;;;11.60;68.70;;;;;;4972145;28;20031;-79
2022/03/29 08:27:15;;;;;;;12.32;8.32;;;11.60;68.70;;;;;;4975461;28;20065;-79
2022/03/29 08:29:41;;;;;;;12.68;9.23;;;11.60;68.80;;;;;;4959599;28;20062;-79
2022/03/29 08:32:07;;;;;;;12.25;8.38;;;11.60;68.80;;;;;;4959907;28;20512;-78
2022/03/29 08:34:33;;;;;;;11.93;8.20;;;11.60;68.80;;;;;;4939098;28;20085;-79
2022/03/29 08:36:59;;;;;;;12.93;8.93;;;11.60;68.70;;;;;;4991071;28;20038;-78
2022/03/29 08:39:25;;;;;;;12.52;8.90;;;11.60;68.80;;;;;;4974058;28;20027;-77
2022/03/29 08:42:06;;;;;;;13.65;9.07;;;11.70;68.80;;;;;;4975320;28;20038;-77
2022/03/29 08:44:32;;;;;;;12.90;9.00;;;11.70;68.90;;;;;;4985034;28;20110;-78
2022/03/29 08:46:58;;;;;;;12.90;8.75;;;11.70;68.90;;;;;;4974882;28;20088;-78
2022/03/29 08:49:24;;;;;;;12.07;8.73;;;11.70;68.90;;;;;;4975466;28;20061;-78
2022/03/29 08:51:51;;;;;;;13.00;8.77;;;11.70;68.90;;;;;;4971970;28;20026;-79
2022/03/29 08:54:19;;;;;;;11.32;8.32;;;11.70;68.90;;;;;;4988921;28;20084;-78
2022/03/29 08:56:45;;;;;;;12.82;8.98;;;11.70;68.90;;;;;;5016035;28;20049;-78
2022/03/29 08:59:12;;;;;;;13.57;9.23;;;11.70;68.90;;;;;;4996375;28;20064;-80
2022/03/29 09:01:37;;;;;;;12.30;8.70;;;11.80;68.90;;;;;;4996876;28;20014;-78
2022/03/29 09:04:03;;;;;;;12.15;8.98;;;11.80;68.90;;;;;;4993591;28;20030;-79
2022/03/29 09:06:29;;;;;;;13.57;9.02;;;11.80;68.90;;;;;;5001036;28;20124;-77
2022/03/29 09:08:55;;;;;;;12.43;8.30;;;11.80;68.90;;;;;;5013616;28;20112;-79
2022/03/29 09:11:21;;;;;;;12.93;8.95;;;11.80;68.90;;;;;;5021914;28;20021;-78
2022/03/29 09:14:04;;;;;;;13.70;9.00;;;11.90;68.90;;;;;;4994947;28;20554;-78
2022/03/29 09:16:34;;;;;;;13.40;9.55;;;11.90;69.00;;;;;;5030712;28;20029;-79
2022/03/29 09:19:00;;;;;;;13.63;9.38;;;11.90;68.90;;;;;;5023809;28;20030;-78
2022/03/29 09:21:27;;;;;;;14.05;9.82;;;12.00;68.90;;;;;;4981254;28;20026;-79
2022/03/29 09:24:09;;;;;;;13.15;9.55;;;12.00;68.90;;;;;;4995886;28;20034;-78
2022/03/29 09:26:41;;;;;;;14.82;10.27;;;12.00;68.90;;;;;;4996932;28;20477;-78
2022/03/29 09:29:19;;;;;;;13.65;9.82;;;12.00;68.80;;;;;;5004569;28;20025;-79
2022/03/29 09:31:46;;;;;;;13.23;9.40;;;12.00;68.80;;;;;;4996809;28;20040;-79
2022/03/29 09:34:15;;;;;;;13.52;9.68;;;12.10;68.70;;;;;;5005367;28;20028;-78
2022/03/29 09:36:52;;;;;;;15.25;10.38;;;12.10;68.70;;;;;;5013004;28;20088;-79
2022/03/29 09:39:37;;;;;;;13.27;9.50;;;12.10;68.80;;;;;;5022442;28;20126;-80
2022/03/29 09:42:13;;;;;;;16.02;10.32;;;12.10;68.80;;;;;;4999293;28;20041;-78
2022/03/29 09:44:46;;;;;;;15.77;10.18;;;12.20;68.70;;;;;;5018385;28;20030;-79
2022/03/29 09:47:15;;;;;;;15.18;10.32;;;12.20;68.60;;;;;;5019841;28;20040;-79
2022/03/29 09:49:53;;;;;;;13.90;10.05;;;12.20;68.60;;;;;;5013279;28;20072;-79
2022/03/29 09:52:23;;;;;;;13.02;9.52;;;12.30;68.70;;;;;;5013400;28;20068;-79
2022/03/29 09:55:13;;;;;;;14.02;10.32;;;12.30;68.60;;;;;;5012721;28;20022;-79
2022/03/29 09:57:54;;;;;;;15.43;10.65;;;12.30;68.70;;;;;;4988560;28;20046;-79
2022/03/29 10:00:47;;;;;;;14.25;9.60;;;12.40;68.70;;;;;;4996782;28;20030;-79
2022/03/29 10:03:13;;;;;;;17.33;10.13;;;12.40;68.60;;;;;;5012730;28;20087;-79
2022/03/29 10:05:40;;;;;;;14.18;10.10;;;12.50;68.50;;;;;;4995675;28;20125;-78
2022/03/29 10:10:54;;;;;;;13.98;9.73;;;12.50;68.50;;;;;;5005527;28;20091;-78
2022/03/29 10:13:24;;;;;;;16.52;10.73;;;12.60;68.50;;;;;;5005775;28;20041;-79
2022/03/29 10:15:54;;;;;;;15.27;10.48;;;12.60;68.50;;;;;;5003584;28;20554;-78
2022/03/29 10:18:21;;;;;;;15.38;10.85;;;12.60;68.40;;;;;;4996214;28;20038;-77
2022/03/29 10:20:48;;;;;;;16.13;11.23;;;12.70;68.50;;;;;;4989295;28;20445;-78
2022/03/29 10:23:14;;;;;;;15.50;10.98;;;12.70;68.40;;;;;;4993321;28;20057;-79
2022/03/29 10:25:42;;;;;;;14.93;10.38;;;12.80;68.40;;;;;;5010201;28;20029;-79
2022/03/29 10:28:08;;;;;;;15.43;10.48;;;12.80;68.30;;;;;;4995841;28;20037;-78
2022/03/29 10:30:37;;;;;;;16.55;11.32;;;12.80;68.20;;;;;;4995548;28;20579;-77
2022/03/29 10:33:23;;;;;;;16.77;11.20;;;12.90;68.20;;;;;;5029760;28;20409;-80
2022/03/29 10:36:11;;;;;;;16.63;11.98;;;12.90;68.30;;;;;;4989547;28;20119;-77
2022/03/29 10:38:46;;;;;;;16.77;10.90;;;13.00;68.20;;;;;;5007524;28;20474;-76
2022/03/29 10:41:27;;;;;;;16.23;10.93;;;13.00;68.10;;;;;;5009749;28;20398;-77
2022/03/29 10:44:04;;;;;;;15.65;10.93;;;13.00;68.10;;;;;;4995810;28;20776;-78
2022/03/29 10:46:39;;;;;;;16.77;11.00;;;13.10;68.10;;;;;;5023003;28;20034;-78
2022/03/29 10:49:24;;;;;;;;;;;13.20;68.10;;;;;;5013018;28;20029;-80
2022/03/29 10:52:12;;;;;;;13.02;8.85;;;13.20;68.00;;;;;;5024277;28;20369;-79
2022/03/29 10:54:41;;;;;;;13.63;9.57;;;13.20;67.80;;;;;;5009733;28;20408;-78
2022/03/29 10:57:30;;;;;;;14.77;10.60;;;13.30;67.90;;;;;;5015972;28;20046;-78
2022/03/29 11:00:10;;;;;;;15.45;10.43;;;13.30;68.00;;;;;;4989839;28;20474;-78
2022/03/29 11:02:36;;;;;;;15.52;10.55;;;13.40;68.00;;;;;;5012520;28;20124;-79
2022/03/29 11:05:07;;;;;;;15.57;11.15;;;13.50;67.80;;;;;;5009299;28;20112;-77
2022/03/29 11:07:39;;;;;;;14.60;10.43;;;13.50;67.80;;;;;;5001614;28;20478;-77
2022/03/29 11:10:20;;;;;;;15.40;10.95;;;13.60;67.80;;;;;;4995494;28;20037;-77
2022/03/29 11:12:51;;;;;;;15.23;10.57;;;13.70;67.80;;;;;;4998040;28;20048;-77
2022/03/29 11:15:47;;;;;;;15.63;10.73;;;13.70;67.60;;;;;;4997699;28;20030;-78
2022/03/29 11:18:30;;;;;;;17.13;11.27;;;13.80;67.70;;;;;;5004789;28;20034;-77
2022/03/29 11:21:04;;;;;;;15.98;11.07;;;13.90;67.70;;;;;;5012044;28;21944;-77
2022/03/29 11:23:38;;;;;;;15.82;10.57;;;13.90;67.50;;;;;;4996021;28;20640;-81
2022/03/29 11:26:15;;;;;;;16.33;10.45;;;14.00;67.60;;;;;;5012390;28;20493;-81
2022/03/29 11:28:49;;;;;;;15.13;10.63;;;14.10;67.60;;;;;;5012826;28;20068;-82
2022/03/29 11:31:15;;;;;;;15.77;11.30;;;14.10;67.50;;;;;;5022732;28;20061;-79
2022/03/29 11:33:42;;;;;;;13.82;10.20;;;14.20;67.50;;;;;;4993803;28;20117;-77
2022/03/29 11:36:10;;;;;;;16.20;11.32;;;14.20;67.50;;;;;;4995461;28;20030;-76
2022/03/29 11:38:36;;;;;;;15.13;10.60;;;14.30;67.50;;;;;;5007056;28;20026;-77
2022/03/29 11:41:04;;;;;;;14.95;10.35;;;14.40;67.50;;;;;;4995031;28;20474;-77
2022/03/29 11:43:31;;;;;;;14.68;10.35;;;14.50;67.50;;;;;;5015154;28;20029;-77
2022/03/29 11:45:57;;;;;;;17.05;11.00;;;14.50;67.50;;;;;;5005220;28;20120;-77
2022/03/29 11:48:25;;;;;;;15.18;10.85;;;14.60;67.50;;;;;;5015429;28;20033;-77
2022/03/29 11:51:02;;;;;;;15.35;10.93;;;14.60;67.50;;;;;;5015644;28;20162;-76
2022/03/29 11:53:32;;;;;;;16.00;10.73;;;14.60;67.40;;;;;;4992116;28;20037;-77
2022/03/29 11:55:58;;;;;;;14.93;10.60;;;14.70;67.40;;;;;;4998444;28;20102;-78
2022/03/29 11:58:25;;;;;;;14.55;10.25;;;14.80;67.40;;;;;;5015269;28;20462;-78
2022/03/29 12:00:55;;;;;;;16.10;11.57;;;14.80;67.50;;;;;;5013829;28;20506;-77
2022/03/29 12:03:33;;;;;;;16.33;11.27;;;14.90;67.50;;;;;;5023643;28;20065;-76
2022/03/29 12:06:07;;;;;;;15.25;11.18;;;14.90;67.70;;;;;;5032605;28;20108;-76
2022/03/29 12:08:43;;;;;;;16.33;12.15;;;15.00;67.70;;;;;;4996073;28;20105;-77
2022/03/29 12:11:09;;;;;;;15.98;11.60;;;15.00;67.80;;;;;;5013007;28;20033;-77
2022/03/29 12:13:34;;;;;;;15.23;11.65;;;15.00;67.70;;;;;;5012774;28;20078;-78
2022/03/29 12:16:18;;;;;;;15.05;11.10;;;15.10;67.80;;;;;;4998642;28;20033;-77
2022/03/29 12:18:45;;;;;;;16.45;12.35;;;15.20;67.90;;;;;;4995734;28;20026;-77
2022/03/29 12:21:13;;;;;;;14.75;10.82;;;15.20;67.80;;;;;;5008082;28;20100;-76
2022/03/29 12:23:41;;;;;;;14.38;11.15;;;15.20;67.80;;;;;;5032437;28;20401;-77
2022/03/29 12:26:12;;;;;;;15.50;11.50;;;15.30;67.90;;;;;;5006417;28;20490;-75
2022/03/29 12:28:43;;;;;;;16.27;11.45;;;15.30;67.90;;;;;;5032798;28;20037;-77
2022/03/29 12:31:11;;;;;;;16.75;12.10;;;15.30;67.90;;;;;;5014698;28;20107;-78
2022/03/29 12:33:38;;;;;;;15.52;11.82;;;15.40;67.90;;;;;;4998960;28;20021;-76
2022/03/29 12:36:16;;;;;;;14.55;11.18;;;15.40;68.00;;;;;;5014392;28;20581;-76
2022/03/29 12:39:06;;;;;;;13.77;10.55;;;15.50;68.20;;;;;;4981928;28;20034;-77
2022/03/29 12:41:38;;;;;;;15.95;10.85;;;15.50;68.20;;;;;;5021318;28;20030;-77
2022/03/29 12:44:07;;;;;;;15.68;11.18;;;15.50;68.10;;;;;;5007678;28;20072;-77
2022/03/29 12:46:34;;;;;;;15.18;11.10;;;15.60;68.20;;;;;;4989939;28;20362;-76
2022/03/29 12:49:00;;;;;;;15.63;11.77;;;15.60;68.20;;;;;;4996246;28;20053;-76
2022/03/29 12:51:28;;;;;;;16.05;12.23;;;15.70;68.20;;;;;;5011948;28;20044;-76
2022/03/29 12:54:00;;;;;;;14.25;11.45;;;15.70;68.20;;;;;;5022974;28;20025;-77